Time;durP1;ratioP1;P1;durP2;ratioP2;P2;SDS_P1;SDS_P2;PMS_P1;PMS_P2;Temp;Humidity;BMP_temperature;BMP_pressure;BME280_temperature;BME280_humidity;BME280_pressure;Samples;Min_cycle;Max_cycle;Signal;HPM_P1;HPM_P2
2022/07/31 00:00:30;;;;;;;6.07;1.70;;;18.60;99.90;;;;;;5042368;28;20032;-71
2022/07/31 00:02:56;;;;;;;5.88;1.67;;;18.50;99.90;;;;;;5055819;28;20055;-71
2022/07/31 00:05:23;;;;;;;3.10;1.60;;;18.50;99.90;;;;;;5006179;28;20052;-70
2022/07/31 00:07:49;;;;;;;5.18;1.67;;;18.50;99.90;;;;;;5041506;28;20051;-71
2022/07/31 00:10:15;;;;;;;3.78;1.73;;;18.50;99.90;;;;;;5056891;28;20036;-69
2022/07/31 00:12:41;;;;;;;6.18;1.95;;;18.50;99.90;;;;;;5021045;28;20090;-69
2022/07/31 00:15:08;;;;;;;4.47;2.00;;;18.50;99.90;;;;;;5037413;28;20677;-70
2022/07/31 00:17:36;;;;;;;4.03;1.83;;;18.50;99.90;;;;;;5042667;28;20768;-71
2022/07/31 00:20:03;;;;;;;2.67;1.92;;;18.40;99.90;;;;;;5063714;28;20101;-70
2022/07/31 00:22:28;;;;;;;5.95;2.17;;;18.40;99.90;;;;;;5045965;28;20074;-71
2022/07/31 00:24:54;;;;;;;4.53;1.88;;;18.40;99.90;;;;;;5044252;28;20044;-70
2022/07/31 00:27:20;;;;;;;6.55;1.77;;;18.40;99.90;;;;;;5059322;28;20569;-69
2022/07/31 00:29:46;;;;;;;3.70;1.85;;;18.40;99.90;;;;;;5040466;28;20783;-72
2022/07/31 00:32:11;;;;;;;3.55;1.80;;;18.40;99.90;;;;;;5048012;28;20093;-72
2022/07/31 00:34:37;;;;;;;4.15;1.80;;;18.40;99.90;;;;;;5063639;28;20443;-71
2022/07/31 00:37:03;;;;;;;4.80;1.83;;;18.40;99.90;;;;;;5067141;28;20569;-71
2022/07/31 00:39:29;;;;;;;5.43;1.98;;;18.40;99.90;;;;;;5052187;28;21025;-71
2022/07/31 00:41:55;;;;;;;5.35;1.90;;;18.40;99.90;;;;;;5042806;28;20052;-70
2022/07/31 00:44:21;;;;;;;7.13;2.45;;;18.40;99.90;;;;;;5025533;28;20056;-70
2022/07/31 00:46:47;;;;;;;2.53;1.60;;;18.40;99.90;;;;;;5042740;28;20059;-72
2022/07/31 00:49:12;;;;;;;4.80;1.77;;;18.50;99.90;;;;;;5043696;28;20059;-69
2022/07/31 00:51:39;;;;;;;5.35;1.65;;;18.40;99.90;;;;;;5055631;28;20120;-71
2022/07/31 00:54:07;;;;;;;5.25;1.83;;;18.40;99.90;;;;;;5055319;28;20051;-71
2022/07/31 00:56:33;;;;;;;3.08;1.92;;;18.40;99.90;;;;;;5040797;28;20720;-71
2022/07/31 00:58:58;;;;;;;5.35;1.80;;;18.40;99.90;;;;;;5058624;28;20040;-70
2022/07/31 01:01:24;;;;;;;7.45;1.88;;;18.40;99.90;;;;;;5049486;28;20598;-70
2022/07/31 01:03:50;;;;;;;9.27;2.00;;;18.40;99.90;;;;;;5044511;28;20048;-69
2022/07/31 01:06:16;;;;;;;3.92;1.80;;;18.40;99.90;;;;;;5055305;28;20055;-69
2022/07/31 01:08:41;;;;;;;7.20;2.17;;;18.40;99.90;;;;;;5063035;28;20052;-72
2022/07/31 01:11:10;;;;;;;4.03;1.80;;;18.30;99.90;;;;;;5057049;28;20036;-69
2022/07/31 01:13:39;;;;;;;3.53;1.60;;;18.30;99.90;;;;;;5059398;28;20114;-70
2022/07/31 01:16:08;;;;;;;7.00;2.08;;;18.30;99.90;;;;;;5059694;28;20040;-70
2022/07/31 01:18:35;;;;;;;4.38;2.25;;;18.40;99.90;;;;;;5059445;28;20028;-72
2022/07/31 01:21:07;;;;;;;3.40;1.38;;;18.30;99.90;;;;;;5060671;28;20127;-73
2022/07/31 01:24:02;;;;;;;4.95;2.05;;;18.30;99.90;;;;;;5042546;28;20391;-70
2022/07/31 01:26:49;;;;;;;3.95;1.73;;;18.30;99.90;;;;;;5059549;28;20079;-70
2022/07/31 01:29:21;;;;;;;4.63;1.60;;;18.30;99.90;;;;;;5043389;28;20052;-72
2022/07/31 01:31:56;;;;;;;6.68;2.22;;;18.30;99.90;;;;;;5060069;28;20051;-70
2022/07/31 01:34:38;;;;;;;5.78;1.80;;;18.20;99.90;;;;;;5062431;28;20047;-71
2022/07/31 01:37:22;;;;;;;6.22;2.20;;;18.20;99.90;;;;;;5038771;28;20487;-70
2022/07/31 01:40:09;;;;;;;5.90;1.83;;;18.30;99.90;;;;;;5059851;28;20044;-69
2022/07/31 01:42:38;;;;;;;5.97;1.70;;;18.20;99.90;;;;;;5063218;28;20388;-70
2022/07/31 01:45:06;;;;;;;4.32;1.65;;;18.20;99.90;;;;;;5043096;28;20091;-70
2022/07/31 01:47:33;;;;;;;4.85;1.77;;;18.20;99.90;;;;;;5068569;28;20051;-70
2022/07/31 01:50:01;;;;;;;6.57;1.90;;;18.20;99.90;;;;;;5063577;28;20321;-69
2022/07/31 01:52:29;;;;;;;5.95;2.17;;;18.20;99.90;;;;;;5042752;28;20570;-72
2022/07/31 01:54:57;;;;;;;3.90;2.05;;;18.20;99.90;;;;;;5037619;28;20191;-68
2022/07/31 01:57:24;;;;;;;3.22;1.90;;;18.20;99.90;;;;;;5047052;28;20044;-69
2022/07/31 01:59:55;;;;;;;3.97;2.10;;;18.20;99.90;;;;;;5060736;28;20032;-69
2022/07/31 02:02:21;;;;;;;3.28;2.13;;;18.20;99.90;;;;;;5057715;28;20052;-72
2022/07/31 02:04:48;;;;;;;5.10;2.00;;;18.20;99.90;;;;;;5044008;28;20079;-69
2022/07/31 02:07:15;;;;;;;5.03;2.30;;;18.20;99.90;;;;;;5065033;28;20140;-70
2022/07/31 02:09:43;;;;;;;5.43;2.30;;;18.10;99.90;;;;;;5061108;28;20137;-70
2022/07/31 02:12:10;;;;;;;4.85;2.70;;;18.20;99.90;;;;;;5046437;28;20580;-69
2022/07/31 02:14:39;;;;;;;4.20;2.10;;;18.10;99.90;;;;;;5058723;28;20757;-70
2022/07/31 02:17:07;;;;;;;5.70;2.40;;;18.10;99.90;;;;;;5068052;28;20052;-70
2022/07/31 02:19:34;;;;;;;4.25;2.50;;;18.10;99.90;;;;;;5062079;28;20032;-72
2022/07/31 02:22:00;;;;;;;3.47;1.85;;;18.10;99.90;;;;;;5044843;28;20079;-70
2022/07/31 02:24:26;;;;;;;5.20;2.13;;;18.20;99.90;;;;;;5057751;28;20044;-70
2022/07/31 02:26:53;;;;;;;3.25;1.90;;;18.20;99.90;;;;;;5029365;28;20489;-70
2022/07/31 02:29:20;;;;;;;4.45;2.17;;;18.20;99.90;;;;;;5044495;28;20110;-73
2022/07/31 02:31:49;;;;;;;2.58;1.80;;;18.20;99.90;;;;;;5058096;28;20114;-73
2022/07/31 02:34:16;;;;;;;4.97;1.77;;;18.20;99.90;;;;;;5057333;28;20086;-71
2022/07/31 02:36:44;;;;;;;4.07;2.00;;;18.20;99.90;;;;;;5039971;28;20040;-74
2022/07/31 02:39:11;;;;;;;2.85;1.80;;;18.20;99.90;;;;;;5059847;28;20036;-73
2022/07/31 02:41:38;;;;;;;5.40;1.90;;;18.20;99.90;;;;;;5062719;28;20042;-71
2022/07/31 02:44:04;;;;;;;5.15;1.77;;;18.20;99.90;;;;;;5062657;28;20043;-70
2022/07/31 02:46:30;;;;;;;4.95;1.83;;;18.20;99.90;;;;;;5043906;28;20048;-69
2022/07/31 02:48:56;;;;;;;3.53;1.52;;;18.20;99.90;;;;;;5064436;28;20036;-69
2022/07/31 02:51:23;;;;;;;4.93;1.67;;;18.30;99.90;;;;;;5065892;28;20097;-70
2022/07/31 02:53:49;;;;;;;3.65;1.80;;;18.20;99.90;;;;;;5044326;28;20056;-69
2022/07/31 02:56:15;;;;;;;4.35;1.63;;;18.20;99.90;;;;;;5062553;28;20048;-72
2022/07/31 02:58:41;;;;;;;5.50;1.85;;;18.20;99.90;;;;;;5060797;28;20055;-68
2022/07/31 03:01:07;;;;;;;5.40;2.15;;;18.10;99.90;;;;;;5065361;28;20683;-71
2022/07/31 03:03:34;;;;;;;5.13;1.65;;;18.10;99.90;;;;;;5059960;28;20043;-72
2022/07/31 03:06:00;;;;;;;3.75;2.05;;;18.10;99.90;;;;;;5061805;28;20895;-71
2022/07/31 03:08:28;;;;;;;4.95;1.90;;;18.10;99.90;;;;;;5034372;28;20044;-70
2022/07/31 03:10:54;;;;;;;4.07;2.15;;;18.10;99.90;;;;;;5055029;28;20044;-71
2022/07/31 03:13:23;;;;;;;5.75;2.15;;;18.00;99.90;;;;;;5039238;28;21170;-69
2022/07/31 03:15:49;;;;;;;4.53;1.67;;;18.00;99.90;;;;;;5061137;28;20051;-70
2022/07/31 03:18:17;;;;;;;5.72;1.80;;;18.00;99.90;;;;;;5025514;28;20040;-71
2022/07/31 03:20:44;;;;;;;4.25;1.73;;;18.00;99.90;;;;;;5046454;28;20155;-68
2022/07/31 03:23:12;;;;;;;7.32;2.20;;;18.00;99.90;;;;;;5039944;28;20819;-70
2022/07/31 03:25:40;;;;;;;6.25;2.28;;;17.90;99.90;;;;;;5058395;28;20083;-69
2022/07/31 03:28:07;;;;;;;2.88;1.88;;;17.90;99.90;;;;;;5059035;28;20047;-69
2022/07/31 03:30:34;;;;;;;5.32;2.00;;;17.90;99.90;;;;;;5051106;28;20056;-71
2022/07/31 03:33:02;;;;;;;5.63;2.00;;;17.90;99.90;;;;;;5043253;28;20113;-70
2022/07/31 03:35:28;;;;;;;4.97;2.22;;;17.90;99.90;;;;;;5060248;28;20052;-69
2022/07/31 03:37:54;;;;;;;3.35;1.88;;;17.90;99.90;;;;;;5058270;28;20052;-69
2022/07/31 03:40:20;;;;;;;5.75;2.03;;;17.90;99.90;;;;;;5057899;28;20028;-69
2022/07/31 03:42:48;;;;;;;5.32;2.25;;;17.90;99.90;;;;;;5066078;28;20728;-69
2022/07/31 03:45:15;;;;;;;5.30;2.13;;;17.80;99.90;;;;;;5058492;28;20061;-69
2022/07/31 03:47:41;;;;;;;4.82;2.22;;;17.80;99.90;;;;;;5040589;28;20048;-70
2022/07/31 03:50:08;;;;;;;4.60;2.45;;;17.80;99.90;;;;;;5059221;28;20051;-70
2022/07/31 03:52:34;;;;;;;4.00;1.95;;;17.80;99.90;;;;;;5058192;28;20766;-72
2022/07/31 03:55:00;;;;;;;5.47;2.22;;;17.80;99.90;;;;;;5055386;28;20058;-70
2022/07/31 03:57:28;;;;;;;4.63;2.13;;;17.80;99.90;;;;;;5055113;28;20074;-69
2022/07/31 03:59:56;;;;;;;3.55;1.88;;;17.70;99.90;;;;;;5060174;28;20051;-70
2022/07/31 04:02:25;;;;;;;4.13;2.20;;;17.80;99.90;;;;;;5056978;28;20046;-70
2022/07/31 04:04:51;;;;;;;5.15;1.90;;;17.80;99.90;;;;;;5058782;28;20044;-69
2022/07/31 04:07:17;;;;;;;4.93;2.28;;;17.80;99.90;;;;;;5056901;28;20043;-71
2022/07/31 04:09:43;;;;;;;7.18;2.92;;;17.80;99.90;;;;;;5055798;28;20059;-69
2022/07/31 04:12:09;;;;;;;6.55;2.25;;;17.80;99.90;;;;;;5065260;28;20059;-70
2022/07/31 04:14:35;;;;;;;5.60;2.30;;;17.90;99.90;;;;;;5054826;28;20052;-70
2022/07/31 04:17:01;;;;;;;6.95;2.40;;;17.90;99.90;;;;;;5035273;28;20032;-70
2022/07/31 04:19:29;;;;;;;3.90;2.05;;;17.90;99.90;;;;;;5024307;28;20040;-72
2022/07/31 04:21:56;;;;;;;4.88;2.42;;;17.90;99.90;;;;;;5058710;28;20122;-70
2022/07/31 04:24:22;;;;;;;3.97;2.00;;;18.00;99.90;;;;;;5036884;28;20543;-69
2022/07/31 04:26:49;;;;;;;3.83;1.75;;;18.00;99.90;;;;;;5059060;28;20044;-69
2022/07/31 04:29:15;;;;;;;4.65;2.08;;;18.00;99.90;;;;;;5056828;28;20044;-70
2022/07/31 04:31:40;;;;;;;5.50;2.28;;;18.00;99.90;;;;;;5046024;28;20144;-73
2022/07/31 04:34:06;;;;;;;5.05;2.35;;;18.00;99.90;;;;;;5040498;28;20133;-73
2022/07/31 04:36:32;;;;;;;7.78;2.50;;;18.10;99.90;;;;;;5057011;28;20476;-69
2022/07/31 04:38:59;;;;;;;4.03;1.92;;;18.10;99.90;;;;;;5064141;28;20422;-70
2022/07/31 04:41:25;;;;;;;3.97;2.10;;;18.10;99.90;;;;;;5056395;28;20563;-69
2022/07/31 04:43:50;;;;;;;6.22;2.20;;;18.10;99.90;;;;;;5040058;28;20821;-68
2022/07/31 04:46:16;;;;;;;7.47;2.25;;;18.10;99.90;;;;;;5054440;28;20036;-69
2022/07/31 04:48:42;;;;;;;7.15;2.35;;;18.10;99.90;;;;;;5042194;28;20052;-70
2022/07/31 04:51:07;;;;;;;4.85;2.10;;;18.10;99.90;;;;;;5041429;28;20306;-69
2022/07/31 04:53:33;;;;;;;3.85;2.08;;;18.10;99.90;;;;;;5040218;28;20055;-70
2022/07/31 04:58:43;;;;;;;7.15;2.42;;;18.20;99.90;;;;;;5063770;28;20059;-70
2022/07/31 05:01:09;;;;;;;4.63;2.05;;;18.30;99.90;;;;;;5063034;28;20036;-70
2022/07/31 05:03:34;;;;;;;4.38;2.00;;;18.40;99.90;;;;;;5056150;28;20046;-70
2022/07/31 05:06:10;;;;;;;4.60;2.00;;;18.40;99.90;;;;;;5039989;28;20077;-70
2022/07/31 05:08:36;;;;;;;4.85;1.85;;;18.40;99.90;;;;;;5040607;28;20384;-68
2022/07/31 05:13:46;;;;;;;4.95;2.28;;;18.30;99.90;;;;;;5059108;28;20833;-71
2022/07/31 05:16:11;;;;;;;4.82;2.50;;;18.30;99.90;;;;;;5054801;28;20119;-71
2022/07/31 05:18:37;;;;;;;3.65;2.13;;;18.20;99.90;;;;;;5063527;28;20037;-72
2022/07/31 05:21:03;;;;;;;7.68;2.58;;;18.20;99.90;;;;;;5060942;28;20032;-70
2022/07/31 05:23:28;;;;;;;6.03;2.53;;;18.20;99.90;;;;;;5062064;28;20446;-70
2022/07/31 05:25:54;;;;;;;7.00;2.30;;;18.20;99.90;;;;;;5045497;28;20059;-69
2022/07/31 05:28:20;;;;;;;4.05;2.50;;;18.20;99.90;;;;;;5060122;28;20645;-72
2022/07/31 05:30:45;;;;;;;4.13;2.60;;;18.30;99.90;;;;;;5058969;28;20270;-70
2022/07/31 05:33:11;;;;;;;4.78;2.78;;;18.40;99.90;;;;;;5041820;28;20129;-70
2022/07/31 05:35:37;;;;;;;5.18;2.30;;;18.50;99.90;;;;;;5063399;28;20108;-71
2022/07/31 05:38:02;;;;;;;6.47;2.60;;;18.60;99.90;;;;;;5056951;28;20044;-70
2022/07/31 05:40:28;;;;;;;6.25;2.45;;;18.70;99.90;;;;;;5068188;28;20876;-69
2022/07/31 05:42:54;;;;;;;5.10;2.88;;;18.80;99.90;;;;;;5059923;28;20052;-69
2022/07/31 05:45:20;;;;;;;7.28;2.70;;;18.90;99.90;;;;;;5039562;28;20105;-70
2022/07/31 05:47:45;;;;;;;6.35;2.35;;;19.00;99.90;;;;;;5062734;28;20510;-70
2022/07/31 05:50:11;;;;;;;7.00;2.55;;;19.10;99.90;;;;;;5060847;28;20067;-70
2022/07/31 05:52:37;;;;;;;7.25;2.63;;;19.20;99.90;;;;;;5058951;28;20040;-70
2022/07/31 05:55:03;;;;;;;4.18;2.60;;;19.20;99.90;;;;;;5057258;28;20048;-70
2022/07/31 05:57:29;;;;;;;5.75;2.83;;;19.20;99.90;;;;;;5046019;28;20603;-70
2022/07/31 05:59:54;;;;;;;6.50;2.58;;;19.10;99.90;;;;;;5045752;28;20058;-72
2022/07/31 06:02:20;;;;;;;6.55;2.53;;;19.20;99.90;;;;;;5021379;28;20517;-69
2022/07/31 06:04:46;;;;;;;7.82;3.05;;;19.20;99.90;;;;;;5040471;28;20758;-69
2022/07/31 06:07:11;;;;;;;4.05;2.40;;;19.30;99.90;;;;;;5067013;28;20673;-70
2022/07/31 06:09:37;;;;;;;8.15;2.70;;;19.30;99.90;;;;;;5033660;28;20082;-73
2022/07/31 06:12:03;;;;;;;8.75;3.17;;;19.40;99.90;;;;;;5064332;28;20703;-70
2022/07/31 06:14:29;;;;;;;6.43;2.67;;;19.50;99.90;;;;;;5055090;28;20082;-70
2022/07/31 06:16:54;;;;;;;6.25;2.70;;;19.60;99.90;;;;;;5056158;28;20072;-71
2022/07/31 06:19:20;;;;;;;5.75;2.83;;;19.70;99.90;;;;;;5048505;28;20499;-69
2022/07/31 06:21:46;;;;;;;7.10;2.67;;;19.70;99.90;;;;;;5056315;28;20129;-72
2022/07/31 06:24:11;;;;;;;5.10;2.40;;;19.80;99.90;;;;;;5057961;28;20099;-70
2022/07/31 06:26:37;;;;;;;7.45;2.92;;;19.80;99.90;;;;;;5054909;28;20771;-69
2022/07/31 06:29:03;;;;;;;5.95;3.10;;;19.90;99.90;;;;;;5055394;28;20051;-69
2022/07/31 06:31:29;;;;;;;11.38;2.97;;;20.00;99.90;;;;;;5039483;28;20048;-70
2022/07/31 06:33:55;;;;;;;7.13;2.97;;;20.10;99.90;;;;;;5038932;28;20040;-69
2022/07/31 06:36:20;;;;;;;6.78;2.90;;;20.00;99.90;;;;;;5053034;28;20574;-68
2022/07/31 06:38:46;;;;;;;7.22;3.10;;;20.20;99.90;;;;;;5054225;28;20710;-68
2022/07/31 06:41:43;;;;;;;5.30;2.42;;;20.20;99.90;;;;;;5061741;28;20446;-71
2022/07/31 06:43:57;;;;;;;5.38;2.58;;;20.30;99.90;;;;;;5061886;28;20044;-70
2022/07/31 06:46:23;;;;;;;6.90;2.53;;;20.40;99.90;;;;;;5065318;28;20487;-68
2022/07/31 06:48:49;;;;;;;5.45;2.42;;;20.40;99.90;;;;;;5056318;28;20637;-70
2022/07/31 06:51:14;;;;;;;6.03;2.50;;;20.40;99.90;;;;;;5015615;28;20041;-70
2022/07/31 06:53:40;;;;;;;10.05;2.35;;;20.50;99.90;;;;;;5063068;28;20052;-72
2022/07/31 06:56:06;;;;;;;8.35;2.53;;;20.60;99.90;;;;;;5051092;28;20115;-69
2022/07/31 06:58:32;;;;;;;5.57;2.08;;;20.70;99.90;;;;;;5036369;28;20071;-70
2022/07/31 07:00:57;;;;;;;5.18;2.05;;;20.70;99.90;;;;;;5039676;28;20044;-70
2022/07/31 07:03:23;;;;;;;7.30;2.17;;;20.70;99.90;;;;;;5052242;28;20079;-69
2022/07/31 07:05:48;;;;;;;9.57;2.38;;;20.80;99.90;;;;;;5069052;28;20982;-73
2022/07/31 07:08:14;;;;;;;6.07;2.42;;;20.90;99.90;;;;;;5061670;28;20139;-71
2022/07/31 07:10:40;;;;;;;5.28;1.88;;;20.80;99.90;;;;;;5052155;28;20051;-71
2022/07/31 07:13:05;;;;;;;4.85;2.20;;;20.80;99.90;;;;;;5063862;28;20056;-71
2022/07/31 07:15:31;;;;;;;5.32;1.95;;;20.80;99.90;;;;;;5052129;28;20128;-69
2022/07/31 07:17:57;;;;;;;5.45;1.85;;;20.70;99.90;;;;;;5061403;28;20325;-72
2022/07/31 07:20:23;;;;;;;4.60;2.00;;;20.80;99.90;;;;;;5044358;28;20566;-69
2022/07/31 07:22:48;;;;;;;3.60;1.63;;;20.70;99.90;;;;;;5058950;28;20627;-71
2022/07/31 07:25:14;;;;;;;4.13;1.90;;;20.80;99.90;;;;;;5037386;28;20349;-69
2022/07/31 07:27:39;;;;;;;5.30;1.98;;;20.80;99.90;;;;;;5039434;28;20073;-70
2022/07/31 07:30:06;;;;;;;7.45;2.00;;;20.80;99.90;;;;;;5053156;28;20044;-70
2022/07/31 07:32:31;;;;;;;5.60;1.73;;;20.90;99.90;;;;;;5021442;28;20521;-71
2022/07/31 07:34:57;;;;;;;4.05;1.58;;;21.00;99.90;;;;;;5035744;28;20033;-69
2022/07/31 07:37:23;;;;;;;4.35;1.70;;;20.90;99.90;;;;;;5033780;28;20063;-69
2022/07/31 07:39:48;;;;;;;4.43;1.70;;;21.00;99.90;;;;;;5057056;28;20043;-69
2022/07/31 07:42:14;;;;;;;3.58;1.60;;;21.00;99.90;;;;;;5018833;28;20588;-71
2022/07/31 07:44:40;;;;;;;4.50;1.83;;;21.00;99.90;;;;;;5055464;28;20619;-72
2022/07/31 07:47:05;;;;;;;5.65;1.90;;;21.10;99.90;;;;;;5062009;28;20040;-72
2022/07/31 07:49:33;;;;;;;2.80;1.67;;;21.10;99.90;;;;;;5056339;28;20219;-70
2022/07/31 07:51:59;;;;;;;3.08;1.38;;;21.00;99.90;;;;;;5058645;28;20109;-70
2022/07/31 07:54:25;;;;;;;4.60;1.98;;;21.00;99.90;;;;;;5041618;28;20424;-71
2022/07/31 07:56:51;;;;;;;4.30;1.60;;;21.10;99.90;;;;;;5055117;28;20090;-70
2022/07/31 07:59:16;;;;;;;9.38;2.03;;;21.10;99.90;;;;;;5053084;28;20047;-69
2022/07/31 08:01:42;;;;;;;4.20;1.98;;;21.10;99.90;;;;;;5056568;28;20044;-69
2022/07/31 08:04:08;;;;;;;5.68;1.92;;;21.20;99.90;;;;;;5052813;28;20036;-71
2022/07/31 08:06:33;;;;;;;4.57;2.22;;;21.30;99.90;;;;;;5052579;28;20467;-70
2022/07/31 08:08:59;;;;;;;2.58;1.50;;;21.40;99.90;;;;;;5018917;28;20129;-70
2022/07/31 08:11:25;;;;;;;16.88;3.10;;;21.40;99.90;;;;;;5020385;28;20457;-71
2022/07/31 08:13:51;;;;;;;3.90;1.85;;;21.40;99.90;;;;;;5057423;28;20060;-71
2022/07/31 08:16:18;;;;;;;5.30;1.75;;;21.50;99.90;;;;;;5057016;28;20139;-73
2022/07/31 08:18:44;;;;;;;5.65;2.05;;;21.60;99.90;;;;;;5036111;28;20056;-71
2022/07/31 08:21:10;;;;;;;4.45;1.85;;;21.70;99.90;;;;;;5032623;28;20515;-70
2022/07/31 08:23:35;;;;;;;3.30;1.48;;;21.70;99.90;;;;;;5051329;28;20040;-72
2022/07/31 08:26:03;;;;;;;4.43;1.40;;;21.80;99.90;;;;;;5017469;28;21298;-70
2022/07/31 08:28:29;;;;;;;4.53;1.60;;;21.90;99.90;;;;;;5060476;28;20069;-70
2022/07/31 08:30:55;;;;;;;5.85;2.28;;;22.00;99.90;;;;;;5036039;28;20060;-70
2022/07/31 08:33:21;;;;;;;5.15;2.03;;;22.20;99.90;;;;;;5053139;28;20605;-69
2022/07/31 08:35:48;;;;;;;3.78;1.90;;;22.30;99.90;;;;;;5056347;28;20044;-73
2022/07/31 08:38:16;;;;;;;4.50;2.08;;;22.50;99.90;;;;;;5053388;28;20275;-70
2022/07/31 08:40:43;;;;;;;6.50;2.35;;;22.80;99.90;;;;;;5053520;28;20047;-71
2022/07/31 08:43:08;;;;;;;4.07;1.85;;;22.90;99.90;;;;;;5057104;28;20051;-71
2022/07/31 08:45:36;;;;;;;4.05;1.70;;;22.90;99.90;;;;;;5052357;28;20051;-73
2022/07/31 08:48:06;;;;;;;3.42;1.67;;;22.90;99.90;;;;;;5018848;28;20550;-71
2022/07/31 08:50:33;;;;;;;3.63;1.88;;;23.00;99.90;;;;;;5033691;28;20345;-71
2022/07/31 08:53:01;;;;;;;4.10;1.50;;;23.30;99.90;;;;;;5035328;28;20133;-75
2022/07/31 08:55:28;;;;;;;3.75;1.65;;;23.30;99.90;;;;;;5034794;28;20045;-70
2022/07/31 08:57:53;;;;;;;3.42;1.85;;;23.30;99.90;;;;;;5052293;28;20102;-70
2022/07/31 09:00:21;;;;;;;3.55;2.30;;;23.10;99.90;;;;;;5051880;28;20050;-71
2022/07/31 09:02:47;;;;;;;4.78;1.45;;;23.10;99.90;;;;;;5018086;28;20041;-72
2022/07/31 09:05:13;;;;;;;3.95;1.70;;;23.00;99.90;;;;;;5015210;28;20032;-73
2022/07/31 09:07:39;;;;;;;4.70;2.10;;;23.00;99.90;;;;;;5037607;28;20048;-71
2022/07/31 09:10:19;;;;;;;3.42;1.90;;;22.90;99.90;;;;;;5055538;28;20049;-70
2022/07/31 09:12:45;;;;;;;4.72;2.72;;;22.50;99.90;;;;;;5033764;28;20139;-70
2022/07/31 09:15:26;;;;;;;3.90;2.45;;;22.30;99.90;;;;;;5040404;28;20063;-71
2022/07/31 09:17:52;;;;;;;4.82;2.55;;;22.30;99.90;;;;;;5051854;28;20052;-70
2022/07/31 09:20:25;;;;;;;6.75;2.45;;;22.10;99.90;;;;;;5034773;28;20041;-71
2022/07/31 09:23:08;;;;;;;5.47;2.53;;;22.10;99.90;;;;;;5037595;28;20056;-71
2022/07/31 09:25:34;;;;;;;3.92;2.60;;;22.00;99.90;;;;;;5061043;28;20387;-70
2022/07/31 09:28:05;;;;;;;4.20;2.60;;;21.90;99.90;;;;;;5032151;28;20036;-72
2022/07/31 09:30:33;;;;;;;5.22;3.40;;;21.80;99.90;;;;;;5059541;28;20377;-71
2022/07/31 09:33:15;;;;;;;5.47;3.83;;;21.70;99.90;;;;;;5043276;28;20051;-73
2022/07/31 09:35:48;;;;;;;6.20;4.03;;;21.50;99.90;;;;;;5022158;28;20760;-71
2022/07/31 09:38:15;;;;;;;7.40;4.20;;;21.40;99.90;;;;;;5017636;28;20048;-73
2022/07/31 09:40:44;;;;;;;6.20;4.40;;;21.20;99.90;;;;;;5058547;28;20044;-72
2022/07/31 09:43:18;;;;;;;7.78;5.20;;;21.10;99.90;;;;;;5053400;28;20052;-72
2022/07/31 09:45:57;;;;;;;7.88;5.20;;;20.90;99.90;;;;;;5024266;28;20326;-73
2022/07/31 09:48:23;;;;;;;7.85;5.07;;;20.80;99.90;;;;;;5039998;28;20418;-72
2022/07/31 09:50:56;;;;;;;7.65;6.03;;;20.80;99.90;;;;;;5054632;28;20417;-72
2022/07/31 09:53:22;;;;;;;8.65;6.10;;;20.70;99.90;;;;;;5038388;28;20055;-72
2022/07/31 09:55:56;;;;;;;6.18;5.57;;;20.70;99.90;;;;;;5056305;28;20044;-71
2022/07/31 09:58:23;;;;;;;7.50;6.45;;;20.70;99.90;;;;;;5055588;28;20078;-72
2022/07/31 10:00:53;;;;;;;9.05;6.82;;;20.70;99.90;;;;;;5064245;28;20632;-72
2022/07/31 10:03:19;;;;;;;11.15;7.10;;;20.70;99.90;;;;;;5057521;28;20028;-72
2022/07/31 10:05:46;;;;;;;9.90;8.15;;;20.60;99.90;;;;;;5060192;28;20044;-74
2022/07/31 10:08:16;;;;;;;8.77;7.38;;;20.60;99.90;;;;;;5036727;28;20047;-73
2022/07/31 10:10:46;;;;;;;10.55;7.63;;;20.70;99.90;;;;;;5042624;28;20045;-71
2022/07/31 10:13:14;;;;;;;8.93;7.75;;;20.70;99.90;;;;;;5046756;28;20520;-70
2022/07/31 10:15:44;;;;;;;8.43;7.47;;;20.70;99.90;;;;;;5041189;28;20036;-69
2022/07/31 10:18:10;;;;;;;10.43;8.27;;;20.60;99.90;;;;;;5040174;28;20810;-68
2022/07/31 10:20:40;;;;;;;8.60;7.15;;;20.60;99.90;;;;;;5041226;28;20075;-70
2022/07/31 10:23:21;;;;;;;9.90;7.68;;;20.40;99.90;;;;;;5018096;28;20116;-71
2022/07/31 10:25:55;;;;;;;9.25;8.02;;;20.50;99.90;;;;;;5037670;28;20051;-73
2022/07/31 10:28:21;;;;;;;9.65;8.23;;;20.30;99.90;;;;;;5020047;28;20061;-69
2022/07/31 10:30:48;;;;;;;10.32;8.85;;;20.30;99.90;;;;;;5044380;28;20037;-69
2022/07/31 10:33:15;;;;;;;11.65;9.02;;;20.30;99.90;;;;;;4988282;28;20060;-70
2022/07/31 10:35:53;;;;;;;10.05;8.95;;;20.20;99.90;;;;;;5040821;28;20656;-70
2022/07/31 10:38:46;;;;;;;13.35;10.85;;;20.30;99.90;;;;;;5035101;28;20053;-71
2022/07/31 10:41:43;;;;;;;11.50;9.40;;;20.20;99.90;;;;;;5016964;28;20637;-69
2022/07/31 10:44:33;;;;;;;12.13;9.90;;;20.10;99.90;;;;;;5032131;28;20128;-72
2022/07/31 10:46:59;;;;;;;15.23;10.55;;;20.10;99.90;;;;;;5025732;28;20589;-69
2022/07/31 10:49:51;;;;;;;17.35;11.73;;;20.00;99.90;;;;;;5021813;28;20052;-71
2022/07/31 10:52:28;;;;;;;14.93;11.88;;;20.10;99.90;;;;;;5014794;28;20053;-70
2022/07/31 10:54:57;;;;;;;12.10;9.23;;;20.10;99.90;;;;;;5035308;28;20755;-71
2022/07/31 10:57:27;;;;;;;13.63;11.35;;;20.10;99.90;;;;;;5040938;28;20053;-70
2022/07/31 10:59:54;;;;;;;16.15;12.82;;;20.10;99.90;;;;;;5036550;28;20033;-70
2022/07/31 11:02:33;;;;;;;15.00;12.25;;;20.10;99.90;;;;;;5033658;28;20451;-71
2022/07/31 11:05:13;;;;;;;14.77;12.50;;;20.00;99.90;;;;;;5043723;28;20402;-70
2022/07/31 11:07:44;;;;;;;14.60;13.10;;;19.90;99.90;;;;;;5030045;28;20072;-70
2022/07/31 11:10:17;;;;;;;16.15;13.68;;;19.80;99.90;;;;;;5033349;28;20068;-69
2022/07/31 11:12:43;;;;;;;18.58;14.73;;;19.90;99.90;;;;;;5040088;28;20060;-70
2022/07/31 11:15:23;;;;;;;16.85;15.07;;;19.80;99.90;;;;;;5040989;28;20048;-70
2022/07/31 11:17:49;;;;;;;18.13;16.23;;;19.80;99.90;;;;;;5038545;28;20037;-69
2022/07/31 11:20:24;;;;;;;17.17;15.40;;;19.70;99.90;;;;;;5036092;28;20051;-69
2022/07/31 11:22:58;;;;;;;21.00;18.02;;;19.70;99.90;;;;;;5015929;28;20072;-69
2022/07/31 11:25:28;;;;;;;24.02;18.65;;;19.70;99.90;;;;;;5036100;28;20049;-69
2022/07/31 11:27:54;;;;;;;21.23;19.13;;;19.60;99.90;;;;;;5035007;28;20061;-67
2022/07/31 11:30:20;;;;;;;22.23;19.83;;;19.60;99.90;;;;;;5038337;28;20298;-69
2022/07/31 11:32:52;;;;;;;23.63;21.20;;;19.60;99.90;;;;;;5016691;28;20056;-69
2022/07/31 11:35:29;;;;;;;20.80;18.73;;;19.60;99.90;;;;;;5035846;28;20068;-69
2022/07/31 11:37:56;;;;;;;21.45;19.27;;;19.40;99.90;;;;;;5043914;28;20075;-67
2022/07/31 11:40:22;;;;;;;23.38;20.88;;;19.30;99.90;;;;;;5035891;28;20563;-68
2022/07/31 11:42:48;;;;;;;22.98;20.58;;;19.30;99.90;;;;;;5018751;28;20036;-69
2022/07/31 11:45:15;;;;;;;23.27;20.88;;;19.20;99.90;;;;;;5028211;28;20041;-67
2022/07/31 11:47:42;;;;;;;26.25;23.45;;;19.20;99.90;;;;;;5032086;28;20043;-69
2022/07/31 11:50:09;;;;;;;21.98;18.23;;;19.10;99.90;;;;;;5046128;28;20548;-68
2022/07/31 11:52:35;;;;;;;23.20;20.83;;;19.10;99.90;;;;;;5020512;28;20055;-67
2022/07/31 11:55:12;;;;;;;21.90;19.70;;;19.00;99.90;;;;;;5039505;28;20048;-68
2022/07/31 11:57:40;;;;;;;27.25;24.38;;;18.90;99.90;;;;;;5040318;28;20479;-68
2022/07/31 12:00:11;;;;;;;28.13;24.50;;;18.90;99.90;;;;;;4996582;28;20457;-67
2022/07/31 12:02:44;;;;;;;25.70;23.08;;;18.90;99.90;;;;;;5034045;28;20045;-69
2022/07/31 12:05:12;;;;;;;24.65;22.40;;;19.10;99.90;;;;;;5016090;28;20045;-68
2022/07/31 12:07:42;;;;;;;27.35;23.73;;;18.90;99.90;;;;;;5036678;28;20079;-68
2022/07/31 12:10:10;;;;;;;27.48;24.67;;;19.00;99.90;;;;;;5016564;28;20037;-68
2022/07/31 12:12:37;;;;;;;26.20;23.40;;;19.10;99.90;;;;;;5038772;28;20755;-68
2022/07/31 12:15:17;;;;;;;27.02;22.60;;;19.20;99.90;;;;;;5036965;28;20052;-69
2022/07/31 12:17:45;;;;;;;26.17;23.40;;;19.10;99.90;;;;;;5023850;28;20241;-70
2022/07/31 12:20:11;;;;;;;22.88;20.60;;;19.10;99.90;;;;;;5040305;28;20048;-68
2022/07/31 12:22:37;;;;;;;25.77;23.08;;;19.30;99.90;;;;;;5039752;28;20041;-69
2022/07/31 12:25:02;;;;;;;18.95;17.00;;;19.30;99.90;;;;;;5016612;28;20388;-68
2022/07/31 12:27:28;;;;;;;22.90;20.58;;;19.20;99.90;;;;;;5030078;28;20128;-69
2022/07/31 12:29:54;;;;;;;18.85;16.55;;;19.10;99.90;;;;;;5041305;28;20043;-67
2022/07/31 12:32:24;;;;;;;18.67;16.73;;;19.20;99.90;;;;;;5041439;28;20448;-68
2022/07/31 12:35:01;;;;;;;36.47;22.23;;;19.00;99.90;;;;;;5032991;28;20057;-69
2022/07/31 12:37:27;;;;;;;22.20;19.88;;;18.80;99.90;;;;;;5041677;28;20049;-68
2022/07/31 12:39:54;;;;;;;23.60;20.92;;;18.60;99.90;;;;;;5033146;28;20606;-68
2022/07/31 12:42:30;;;;;;;36.33;22.92;;;18.50;99.90;;;;;;5032127;28;20045;-71
2022/07/31 12:44:59;;;;;;;34.15;22.90;;;18.60;99.90;;;;;;5032699;28;20614;-68
2022/07/31 12:47:28;;;;;;;22.42;20.15;;;18.50;99.90;;;;;;5033678;28;20721;-68
2022/07/31 12:49:59;;;;;;;26.52;23.67;;;18.40;99.90;;;;;;5022610;28;20049;-69
2022/07/31 12:52:27;;;;;;;28.52;24.40;;;18.30;99.90;;;;;;5033804;28;20041;-70